sensor_id;sensor_type;location;lat;lon;timestamp;P1;durP1;ratioP1;P2;durP2;ratioP2
58101;SDS011;52034;51.926;6.320;2022-08-19T00:00:25;10.30;;;7.75;;
58101;SDS011;52034;51.926;6.320;2022-08-19T00:01:45;8.88;;;7.07;;
58101;SDS011;52034;51.926;6.320;2022-08-19T00:03:05;8.45;;;7.63;;
58101;SDS011;52034;51.926;6.320;2022-08-19T00:04:27;9.90;;;7.90;;
58101;SDS011;52034;51.926;6.320;2022-08-19T00:07:07;9.60;;;8.57;;
58101;SDS011;52034;51.926;6.320;2022-08-19T00:08:26;11.80;;;9.45;;
58101;SDS011;52034;51.926;6.320;2022-08-19T00:09:45;12.02;;;8.60;;
58101;SDS011;52034;51.926;6.320;2022-08-19T00:11:04;10.73;;;9.27;;
58101;SDS011;52034;51.926;6.320;2022-08-19T00:12:24;9.23;;;8.07;;
58101;SDS011;52034;51.926;6.320;2022-08-19T00:13:43;11.30;;;9.00;;
58101;SDS011;52034;51.926;6.320;2022-08-19T00:15:02;10.63;;;8.80;;
58101;SDS011;52034;51.926;6.320;2022-08-19T00:16:24;8.52;;;7.60;;
58101;SDS011;52034;51.926;6.320;2022-08-19T00:17:44;13.70;;;7.68;;
58101;SDS011;52034;51.926;6.320;2022-08-19T00:19:03;10.57;;;7.25;;
58101;SDS011;52034;51.926;6.320;2022-08-19T00:20:23;9.80;;;6.95;;
58101;SDS011;52034;51.926;6.320;2022-08-19T00:21:43;9.10;;;7.20;;
58101;SDS011;52034;51.926;6.320;2022-08-19T00:23:02;11.80;;;8.02;;
58101;SDS011;52034;51.926;6.320;2022-08-19T00:24:22;9.25;;;7.57;;
58101;SDS011;52034;51.926;6.320;2022-08-19T00:25:41;8.93;;;7.55;;
58101;SDS011;52034;51.926;6.320;2022-08-19T00:27:00;10.05;;;8.05;;
58101;SDS011;52034;51.926;6.320;2022-08-19T00:28:20;9.60;;;8.70;;
58101;SDS011;52034;51.926;6.320;2022-08-19T00:29:39;9.73;;;8.77;;
58101;SDS011;52034;51.926;6.320;2022-08-19T00:30:58;9.55;;;8.55;;
58101;SDS011;52034;51.926;6.320;2022-08-19T00:32:18;11.00;;;8.90;;
58101;SDS011;52034;51.926;6.320;2022-08-19T00:33:37;11.00;;;9.88;;
58101;SDS011;52034;51.926;6.320;2022-08-19T00:34:56;10.98;;;9.35;;
58101;SDS011;52034;51.926;6.320;2022-08-19T00:36:16;10.55;;;9.05;;
58101;SDS011;52034;51.926;6.320;2022-08-19T00:37:35;10.55;;;8.05;;
58101;SDS011;52034;51.926;6.320;2022-08-19T00:38:54;10.85;;;8.90;;
58101;SDS011;52034;51.926;6.320;2022-08-19T00:40:14;9.60;;;8.32;;
58101;SDS011;52034;51.926;6.320;2022-08-19T00:41:34;10.48;;;8.73;;
58101;SDS011;52034;51.926;6.320;2022-08-19T00:42:54;10.18;;;9.20;;
58101;SDS011;52034;51.926;6.320;2022-08-19T00:44:14;11.63;;;8.82;;
58101;SDS011;52034;51.926;6.320;2022-08-19T00:45:35;10.43;;;8.95;;
58101;SDS011;52034;51.926;6.320;2022-08-19T00:46:55;10.15;;;8.40;;
58101;SDS011;52034;51.926;6.320;2022-08-19T00:48:18;9.30;;;8.05;;
58101;SDS011;52034;51.926;6.320;2022-08-19T00:49:40;11.50;;;8.48;;
58101;SDS011;52034;51.926;6.320;2022-08-19T00:51:04;8.93;;;8.13;;
58101;SDS011;52034;51.926;6.320;2022-08-19T00:52:28;10.10;;;8.20;;
58101;SDS011;52034;51.926;6.320;2022-08-19T00:53:50;9.93;;;8.93;;
58101;SDS011;52034;51.926;6.320;2022-08-19T00:55:09;9.32;;;8.23;;
58101;SDS011;52034;51.926;6.320;2022-08-19T00:56:30;10.52;;;9.20;;
58101;SDS011;52034;51.926;6.320;2022-08-19T00:57:51;11.13;;;9.27;;
58101;SDS011;52034;51.926;6.320;2022-08-19T00:59:21;11.82;;;10.15;;
58101;SDS011;52034;51.926;6.320;2022-08-19T01:00:41;11.40;;;9.95;;
58101;SDS011;52034;51.926;6.320;2022-08-19T01:02:00;11.27;;;10.13;;
58101;SDS011;52034;51.926;6.320;2022-08-19T01:03:20;12.07;;;9.55;;
58101;SDS011;52034;51.926;6.320;2022-08-19T01:04:40;12.15;;;10.00;;
58101;SDS011;52034;51.926;6.320;2022-08-19T01:05:59;12.05;;;9.50;;
58101;SDS011;52034;51.926;6.320;2022-08-19T01:07:18;11.30;;;10.02;;
58101;SDS011;52034;51.926;6.320;2022-08-19T01:08:38;11.52;;;9.68;;
58101;SDS011;52034;51.926;6.320;2022-08-19T01:09:57;11.07;;;10.02;;
58101;SDS011;52034;51.926;6.320;2022-08-19T01:11:16;10.60;;;9.50;;
58101;SDS011;52034;51.926;6.320;2022-08-19T01:12:36;13.45;;;10.48;;
58101;SDS011;52034;51.926;6.320;2022-08-19T01:13:55;13.55;;;10.23;;
58101;SDS011;52034;51.926;6.320;2022-08-19T01:15:16;12.75;;;10.35;;
58101;SDS011;52034;51.926;6.320;2022-08-19T01:16:37;13.35;;;11.48;;
58101;SDS011;52034;51.926;6.320;2022-08-19T01:17:59;13.48;;;10.95;;
58101;SDS011;52034;51.926;6.320;2022-08-19T01:19:22;11.65;;;10.50;;
58101;SDS011;52034;51.926;6.320;2022-08-19T01:20:48;13.20;;;10.98;;
58101;SDS011;52034;51.926;6.320;2022-08-19T01:23:31;12.35;;;10.55;;
58101;SDS011;52034;51.926;6.320;2022-08-19T01:25:03;11.93;;;10.43;;
58101;SDS011;52034;51.926;6.320;2022-08-19T01:26:23;13.27;;;11.82;;
58101;SDS011;52034;51.926;6.320;2022-08-19T01:27:44;12.15;;;10.63;;
58101;SDS011;52034;51.926;6.320;2022-08-19T01:29:06;13.55;;;11.45;;
58101;SDS011;52034;51.926;6.320;2022-08-19T01:30:27;15.25;;;11.75;;
58101;SDS011;52034;51.926;6.320;2022-08-19T01:31:48;14.60;;;11.70;;
58101;SDS011;52034;51.926;6.320;2022-08-19T01:33:12;12.93;;;11.43;;
58101;SDS011;52034;51.926;6.320;2022-08-19T01:34:32;14.20;;;11.48;;
58101;SDS011;52034;51.926;6.320;2022-08-19T01:35:52;12.32;;;10.93;;
58101;SDS011;52034;51.926;6.320;2022-08-19T01:37:12;12.60;;;11.20;;
58101;SDS011;52034;51.926;6.320;2022-08-19T01:38:35;12.68;;;11.02;;
58101;SDS011;52034;51.926;6.320;2022-08-19T01:39:57;12.98;;;11.45;;
58101;SDS011;52034;51.926;6.320;2022-08-19T01:41:16;12.93;;;11.52;;
58101;SDS011;52034;51.926;6.320;2022-08-19T01:42:36;13.65;;;12.25;;
58101;SDS011;52034;51.926;6.320;2022-08-19T01:43:55;14.10;;;11.93;;
58101;SDS011;52034;51.926;6.320;2022-08-19T01:45:14;13.00;;;11.70;;
58101;SDS011;52034;51.926;6.320;2022-08-19T01:46:35;13.02;;;11.73;;
58101;SDS011;52034;51.926;6.320;2022-08-19T01:47:54;13.55;;;11.73;;
58101;SDS011;52034;51.926;6.320;2022-08-19T01:49:14;13.75;;;12.20;;
58101;SDS011;52034;51.926;6.320;2022-08-19T01:50:35;15.73;;;12.38;;
58101;SDS011;52034;51.926;6.320;2022-08-19T01:51:54;13.40;;;11.60;;
58101;SDS011;52034;51.926;6.320;2022-08-19T01:53:13;14.23;;;12.55;;
58101;SDS011;52034;51.926;6.320;2022-08-19T01:54:32;13.05;;;11.65;;
58101;SDS011;52034;51.926;6.320;2022-08-19T01:55:52;16.98;;;11.57;;
58101;SDS011;52034;51.926;6.320;2022-08-19T01:57:12;14.50;;;13.00;;
58101;SDS011;52034;51.926;6.320;2022-08-19T01:58:34;14.00;;;12.15;;
58101;SDS011;52034;51.926;6.320;2022-08-19T01:59:57;14.25;;;12.52;;
58101;SDS011;52034;51.926;6.320;2022-08-19T02:01:16;15.05;;;11.48;;
58101;SDS011;52034;51.926;6.320;2022-08-19T02:02:35;14.00;;;11.35;;
58101;SDS011;52034;51.926;6.320;2022-08-19T02:03:54;14.77;;;12.15;;
58101;SDS011;52034;51.926;6.320;2022-08-19T02:05:14;14.32;;;11.80;;
58101;SDS011;52034;51.926;6.320;2022-08-19T02:06:37;14.35;;;12.85;;
58101;SDS011;52034;51.926;6.320;2022-08-19T02:07:56;15.88;;;12.25;;
58101;SDS011;52034;51.926;6.320;2022-08-19T02:09:16;14.80;;;11.52;;
58101;SDS011;52034;51.926;6.320;2022-08-19T02:10:38;16.13;;;12.68;;
58101;SDS011;52034;51.926;6.320;2022-08-19T02:11:59;17.90;;;11.38;;
58101;SDS011;52034;51.926;6.320;2022-08-19T02:13:18;14.18;;;11.38;;
58101;SDS011;52034;51.926;6.320;2022-08-19T02:14:37;14.15;;;12.65;;
58101;SDS011;52034;51.926;6.320;2022-08-19T02:15:56;13.98;;;11.43;;
58101;SDS011;52034;51.926;6.320;2022-08-19T02:17:16;14.75;;;12.43;;
58101;SDS011;52034;51.926;6.320;2022-08-19T02:18:35;15.40;;;12.60;;
58101;SDS011;52034;51.926;6.320;2022-08-19T02:19:55;16.33;;;11.77;;
58101;SDS011;52034;51.926;6.320;2022-08-19T02:21:16;15.02;;;11.88;;
58101;SDS011;52034;51.926;6.320;2022-08-19T02:22:36;14.02;;;11.52;;
58101;SDS011;52034;51.926;6.320;2022-08-19T02:23:55;13.50;;;10.60;;
58101;SDS011;52034;51.926;6.320;2022-08-19T02:25:14;14.25;;;9.52;;
58101;SDS011;52034;51.926;6.320;2022-08-19T02:26:34;14.00;;;9.60;;
58101;SDS011;52034;51.926;6.320;2022-08-19T02:27:53;15.80;;;10.05;;
58101;SDS011;52034;51.926;6.320;2022-08-19T02:29:13;13.98;;;9.63;;
58101;SDS011;52034;51.926;6.320;2022-08-19T02:30:32;12.50;;;10.70;;
58101;SDS011;52034;51.926;6.320;2022-08-19T02:31:51;14.60;;;11.35;;
58101;SDS011;52034;51.926;6.320;2022-08-19T02:33:11;11.85;;;10.45;;
58101;SDS011;52034;51.926;6.320;2022-08-19T02:34:30;12.23;;;10.20;;
58101;SDS011;52034;51.926;6.320;2022-08-19T02:35:49;12.77;;;10.27;;
58101;SDS011;52034;51.926;6.320;2022-08-19T02:37:08;13.60;;;10.88;;
58101;SDS011;52034;51.926;6.320;2022-08-19T02:38:47;14.38;;;12.25;;
58101;SDS011;52034;51.926;6.320;2022-08-19T02:40:06;15.75;;;11.13;;
58101;SDS011;52034;51.926;6.320;2022-08-19T02:41:28;14.52;;;11.15;;
58101;SDS011;52034;51.926;6.320;2022-08-19T02:42:47;13.32;;;11.70;;
58101;SDS011;52034;51.926;6.320;2022-08-19T02:44:07;12.95;;;11.57;;
58101;SDS011;52034;51.926;6.320;2022-08-19T02:45:26;12.32;;;10.95;;
58101;SDS011;52034;51.926;6.320;2022-08-19T02:46:46;12.80;;;10.82;;
58101;SDS011;52034;51.926;6.320;2022-08-19T02:48:08;14.55;;;11.43;;
58101;SDS011;52034;51.926;6.320;2022-08-19T02:49:27;17.33;;;10.65;;
58101;SDS011;52034;51.926;6.320;2022-08-19T02:50:47;13.25;;;10.35;;
58101;SDS011;52034;51.926;6.320;2022-08-19T02:52:07;13.20;;;11.27;;
58101;SDS011;52034;51.926;6.320;2022-08-19T02:53:27;14.73;;;11.57;;
58101;SDS011;52034;51.926;6.320;2022-08-19T02:54:46;14.95;;;12.63;;
58101;SDS011;52034;51.926;6.320;2022-08-19T02:56:06;13.50;;;12.10;;
58101;SDS011;52034;51.926;6.320;2022-08-19T02:57:26;14.10;;;11.65;;
58101;SDS011;52034;51.926;6.320;2022-08-19T02:58:46;16.05;;;12.02;;
58101;SDS011;52034;51.926;6.320;2022-08-19T03:00:05;14.68;;;12.60;;
58101;SDS011;52034;51.926;6.320;2022-08-19T03:01:27;16.38;;;12.38;;
58101;SDS011;52034;51.926;6.320;2022-08-19T03:02:48;16.27;;;14.57;;
58101;SDS011;52034;51.926;6.320;2022-08-19T03:04:08;18.85;;;13.73;;
58101;SDS011;52034;51.926;6.320;2022-08-19T03:05:29;14.60;;;12.33;;
58101;SDS011;52034;51.926;6.320;2022-08-19T03:06:48;15.45;;;13.02;;
58101;SDS011;52034;51.926;6.320;2022-08-19T03:08:08;14.23;;;12.55;;
58101;SDS011;52034;51.926;6.320;2022-08-19T03:10:49;14.75;;;10.77;;
58101;SDS011;52034;51.926;6.320;2022-08-19T03:12:10;12.63;;;9.77;;
58101;SDS011;52034;51.926;6.320;2022-08-19T03:13:29;11.13;;;10.02;;
58101;SDS011;52034;51.926;6.320;2022-08-19T03:14:48;13.75;;;10.18;;
58101;SDS011;52034;51.926;6.320;2022-08-19T03:16:08;12.27;;;11.02;;
58101;SDS011;52034;51.926;6.320;2022-08-19T03:17:26;12.70;;;11.40;;
58101;SDS011;52034;51.926;6.320;2022-08-19T03:18:46;16.30;;;12.57;;
58101;SDS011;52034;51.926;6.320;2022-08-19T03:20:05;14.77;;;11.80;;
58101;SDS011;52034;51.926;6.320;2022-08-19T03:21:28;15.10;;;10.50;;
58101;SDS011;52034;51.926;6.320;2022-08-19T03:22:48;9.70;;;8.73;;
58101;SDS011;52034;51.926;6.320;2022-08-19T03:24:08;8.50;;;7.70;;
58101;SDS011;52034;51.926;6.320;2022-08-19T03:25:27;9.75;;;8.75;;
58101;SDS011;52034;51.926;6.320;2022-08-19T03:26:47;7.95;;;7.25;;
58101;SDS011;52034;51.926;6.320;2022-08-19T03:28:11;5.50;;;5.10;;
58101;SDS011;52034;51.926;6.320;2022-08-19T03:29:32;6.53;;;5.95;;
58101;SDS011;52034;51.926;6.320;2022-08-19T03:30:55;7.32;;;6.68;;
58101;SDS011;52034;51.926;6.320;2022-08-19T03:32:16;10.80;;;9.70;;
58101;SDS011;52034;51.926;6.320;2022-08-19T03:33:35;10.90;;;9.90;;
58101;SDS011;52034;51.926;6.320;2022-08-19T03:34:55;9.13;;;7.95;;
58101;SDS011;52034;51.926;6.320;2022-08-19T03:36:15;11.00;;;8.32;;
58101;SDS011;52034;51.926;6.320;2022-08-19T03:37:35;9.98;;;8.98;;
58101;SDS011;52034;51.926;6.320;2022-08-19T03:38:55;13.07;;;11.18;;
58101;SDS011;52034;51.926;6.320;2022-08-19T03:40:16;13.10;;;11.68;;
58101;SDS011;52034;51.926;6.320;2022-08-19T03:41:37;14.15;;;12.73;;
58101;SDS011;52034;51.926;6.320;2022-08-19T03:42:58;17.08;;;11.48;;
58101;SDS011;52034;51.926;6.320;2022-08-19T03:44:18;12.57;;;10.80;;
58101;SDS011;52034;51.926;6.320;2022-08-19T03:45:40;13.07;;;11.50;;
58101;SDS011;52034;51.926;6.320;2022-08-19T03:46:59;14.32;;;11.25;;
58101;SDS011;52034;51.926;6.320;2022-08-19T03:48:18;13.57;;;12.07;;
58101;SDS011;52034;51.926;6.320;2022-08-19T03:49:37;12.15;;;10.55;;
58101;SDS011;52034;51.926;6.320;2022-08-19T03:50:56;15.25;;;10.98;;
58101;SDS011;52034;51.926;6.320;2022-08-19T03:52:17;13.48;;;11.77;;
58101;SDS011;52034;51.926;6.320;2022-08-19T03:53:36;13.27;;;11.07;;
58101;SDS011;52034;51.926;6.320;2022-08-19T03:54:56;11.60;;;10.02;;
58101;SDS011;52034;51.926;6.320;2022-08-19T03:56:15;12.07;;;10.23;;
58101;SDS011;52034;51.926;6.320;2022-08-19T03:57:34;11.95;;;10.73;;
58101;SDS011;52034;51.926;6.320;2022-08-19T03:58:54;14.40;;;11.60;;
58101;SDS011;52034;51.926;6.320;2022-08-19T04:00:13;13.23;;;11.95;;
58101;SDS011;52034;51.926;6.320;2022-08-19T04:01:34;13.43;;;12.02;;
58101;SDS011;52034;51.926;6.320;2022-08-19T04:02:53;13.52;;;12.10;;
58101;SDS011;52034;51.926;6.320;2022-08-19T04:04:12;15.15;;;12.60;;
58101;SDS011;52034;51.926;6.320;2022-08-19T04:05:32;14.05;;;11.60;;
58101;SDS011;52034;51.926;6.320;2022-08-19T04:06:50;12.77;;;10.98;;
58101;SDS011;52034;51.926;6.320;2022-08-19T04:08:10;10.88;;;9.88;;
58101;SDS011;52034;51.926;6.320;2022-08-19T04:09:29;11.32;;;10.20;;
58101;SDS011;52034;51.926;6.320;2022-08-19T04:10:49;16.23;;;14.32;;
58101;SDS011;52034;51.926;6.320;2022-08-19T04:12:08;17.25;;;12.65;;
58101;SDS011;52034;51.926;6.320;2022-08-19T04:13:27;14.95;;;12.02;;
58101;SDS011;52034;51.926;6.320;2022-08-19T04:14:46;13.25;;;11.50;;
58101;SDS011;52034;51.926;6.320;2022-08-19T04:16:05;13.27;;;11.82;;
58101;SDS011;52034;51.926;6.320;2022-08-19T04:17:25;14.07;;;10.90;;
58101;SDS011;52034;51.926;6.320;2022-08-19T04:18:44;14.50;;;11.48;;
58101;SDS011;52034;51.926;6.320;2022-08-19T04:20:04;13.65;;;11.32;;
58101;SDS011;52034;51.926;6.320;2022-08-19T04:21:24;13.10;;;9.88;;
58101;SDS011;52034;51.926;6.320;2022-08-19T04:22:44;13.00;;;10.23;;
58101;SDS011;52034;51.926;6.320;2022-08-19T04:24:03;10.70;;;9.70;;
58101;SDS011;52034;51.926;6.320;2022-08-19T04:25:22;13.77;;;10.13;;
58101;SDS011;52034;51.926;6.320;2022-08-19T04:26:41;9.50;;;7.45;;
58101;SDS011;52034;51.926;6.320;2022-08-19T04:28:01;7.60;;;6.80;;
58101;SDS011;52034;51.926;6.320;2022-08-19T04:29:21;8.25;;;7.40;;
58101;SDS011;52034;51.926;6.320;2022-08-19T04:30:44;9.82;;;8.82;;
58101;SDS011;52034;51.926;6.320;2022-08-19T04:32:06;10.48;;;9.48;;
58101;SDS011;52034;51.926;6.320;2022-08-19T04:33:25;11.82;;;10.63;;
58101;SDS011;52034;51.926;6.320;2022-08-19T04:34:44;13.05;;;10.57;;
58101;SDS011;52034;51.926;6.320;2022-08-19T04:36:03;11.48;;;10.27;;
58101;SDS011;52034;51.926;6.320;2022-08-19T04:37:22;13.63;;;10.95;;
58101;SDS011;52034;51.926;6.320;2022-08-19T04:38:45;11.73;;;9.85;;
58101;SDS011;52034;51.926;6.320;2022-08-19T04:40:05;11.85;;;10.65;;
58101;SDS011;52034;51.926;6.320;2022-08-19T04:41:43;11.75;;;9.70;;
58101;SDS011;52034;51.926;6.320;2022-08-19T04:43:22;10.52;;;8.98;;
58101;SDS011;52034;51.926;6.320;2022-08-19T04:44:41;9.85;;;8.88;;
58101;SDS011;52034;51.926;6.320;2022-08-19T04:46:07;10.27;;;9.07;;
58101;SDS011;52034;51.926;6.320;2022-08-19T04:47:28;13.38;;;10.25;;
58101;SDS011;52034;51.926;6.320;2022-08-19T04:48:48;13.88;;;10.45;;
58101;SDS011;52034;51.926;6.320;2022-08-19T04:50:07;11.80;;;10.60;;
58101;SDS011;52034;51.926;6.320;2022-08-19T04:51:27;13.10;;;11.70;;
58101;SDS011;52034;51.926;6.320;2022-08-19T04:52:50;12.13;;;10.52;;
58101;SDS011;52034;51.926;6.320;2022-08-19T04:54:10;12.85;;;11.55;;
58101;SDS011;52034;51.926;6.320;2022-08-19T04:55:29;13.02;;;11.63;;
58101;SDS011;52034;51.926;6.320;2022-08-19T04:56:49;13.30;;;11.15;;
58101;SDS011;52034;51.926;6.320;2022-08-19T04:58:08;12.00;;;10.80;;
58101;SDS011;52034;51.926;6.320;2022-08-19T04:59:27;12.13;;;10.68;;
58101;SDS011;52034;51.926;6.320;2022-08-19T05:00:46;13.02;;;10.82;;
58101;SDS011;52034;51.926;6.320;2022-08-19T05:02:06;10.60;;;9.57;;
58101;SDS011;52034;51.926;6.320;2022-08-19T05:03:27;10.52;;;9.40;;
58101;SDS011;52034;51.926;6.320;2022-08-19T05:04:50;9.88;;;8.88;;
58101;SDS011;52034;51.926;6.320;2022-08-19T05:06:11;11.48;;;10.25;;
58101;SDS011;52034;51.926;6.320;2022-08-19T05:07:31;12.38;;;10.98;;
58101;SDS011;52034;51.926;6.320;2022-08-19T05:08:51;11.73;;;10.40;;
58101;SDS011;52034;51.926;6.320;2022-08-19T05:10:10;12.65;;;10.85;;
58101;SDS011;52034;51.926;6.320;2022-08-19T05:11:31;11.95;;;10.70;;
58101;SDS011;52034;51.926;6.320;2022-08-19T05:12:51;11.80;;;10.63;;
58101;SDS011;52034;51.926;6.320;2022-08-19T05:14:11;11.98;;;10.30;;
58101;SDS011;52034;51.926;6.320;2022-08-19T05:15:31;11.57;;;10.48;;
58101;SDS011;52034;51.926;6.320;2022-08-19T05:16:50;10.68;;;9.68;;
58101;SDS011;52034;51.926;6.320;2022-08-19T05:18:09;11.75;;;10.63;;
58101;SDS011;52034;51.926;6.320;2022-08-19T05:19:47;10.48;;;9.48;;
58101;SDS011;52034;51.926;6.320;2022-08-19T05:21:26;11.30;;;10.07;;
58101;SDS011;52034;51.926;6.320;2022-08-19T05:23:04;12.32;;;11.02;;
58101;SDS011;52034;51.926;6.320;2022-08-19T05:24:23;12.25;;;11.05;;
58101;SDS011;52034;51.926;6.320;2022-08-19T05:25:43;13.98;;;11.70;;
58101;SDS011;52034;51.926;6.320;2022-08-19T05:27:03;12.20;;;11.00;;
58101;SDS011;52034;51.926;6.320;2022-08-19T05:28:24;12.80;;;10.93;;
58101;SDS011;52034;51.926;6.320;2022-08-19T05:29:44;11.95;;;10.75;;
58101;SDS011;52034;51.926;6.320;2022-08-19T05:31:03;11.52;;;10.40;;
58101;SDS011;52034;51.926;6.320;2022-08-19T05:32:22;12.80;;;10.10;;
58101;SDS011;52034;51.926;6.320;2022-08-19T05:33:42;12.90;;;10.90;;
58101;SDS011;52034;51.926;6.320;2022-08-19T05:35:01;11.55;;;10.35;;
58101;SDS011;52034;51.926;6.320;2022-08-19T05:36:20;13.15;;;10.80;;
58101;SDS011;52034;51.926;6.320;2022-08-19T05:37:40;13.80;;;10.73;;
58101;SDS011;52034;51.926;6.320;2022-08-19T05:38:59;11.25;;;9.35;;
58101;SDS011;52034;51.926;6.320;2022-08-19T05:40:18;10.50;;;9.48;;
58101;SDS011;52034;51.926;6.320;2022-08-19T05:41:40;11.25;;;10.05;;
58101;SDS011;52034;51.926;6.320;2022-08-19T05:43:03;11.27;;;10.05;;
58101;SDS011;52034;51.926;6.320;2022-08-19T05:44:26;11.73;;;10.57;;
58101;SDS011;52034;51.926;6.320;2022-08-19T05:45:46;11.13;;;9.98;;
58101;SDS011;52034;51.926;6.320;2022-08-19T05:47:06;10.50;;;9.40;;
58101;SDS011;52034;51.926;6.320;2022-08-19T05:48:26;12.43;;;11.00;;
58101;SDS011;52034;51.926;6.320;2022-08-19T05:49:46;13.95;;;12.60;;
58101;SDS011;52034;51.926;6.320;2022-08-19T05:51:06;17.98;;;14.38;;
58101;SDS011;52034;51.926;6.320;2022-08-19T05:52:26;11.85;;;10.65;;
58101;SDS011;52034;51.926;6.320;2022-08-19T05:53:46;15.52;;;12.10;;
58101;SDS011;52034;51.926;6.320;2022-08-19T05:55:06;12.95;;;11.45;;
58101;SDS011;52034;51.926;6.320;2022-08-19T05:56:25;17.58;;;12.35;;
58101;SDS011;52034;51.926;6.320;2022-08-19T05:57:45;13.40;;;11.55;;
58101;SDS011;52034;51.926;6.320;2022-08-19T05:59:05;13.15;;;11.85;;
58101;SDS011;52034;51.926;6.320;2022-08-19T06:00:27;15.25;;;12.82;;
58101;SDS011;52034;51.926;6.320;2022-08-19T06:01:50;14.38;;;12.98;;
58101;SDS011;52034;51.926;6.320;2022-08-19T06:03:10;13.98;;;12.05;;
58101;SDS011;52034;51.926;6.320;2022-08-19T06:04:29;13.32;;;11.57;;
58101;SDS011;52034;51.926;6.320;2022-08-19T06:05:48;14.27;;;12.77;;
58101;SDS011;52034;51.926;6.320;2022-08-19T06:07:07;12.93;;;11.63;;
58101;SDS011;52034;51.926;6.320;2022-08-19T06:08:26;15.57;;;13.40;;
58101;SDS011;52034;51.926;6.320;2022-08-19T06:09:45;15.57;;;13.63;;
58101;SDS011;52034;51.926;6.320;2022-08-19T06:11:14;14.52;;;13.05;;
58101;SDS011;52034;51.926;6.320;2022-08-19T06:12:44;16.45;;;14.35;;
58101;SDS011;52034;51.926;6.320;2022-08-19T06:14:05;19.80;;;14.30;;
58101;SDS011;52034;51.926;6.320;2022-08-19T06:15:27;17.88;;;14.45;;
58101;SDS011;52034;51.926;6.320;2022-08-19T06:16:46;16.13;;;14.43;;
58101;SDS011;52034;51.926;6.320;2022-08-19T06:18:05;17.67;;;14.55;;
58101;SDS011;52034;51.926;6.320;2022-08-19T06:19:24;19.58;;;16.35;;
58101;SDS011;52034;51.926;6.320;2022-08-19T06:20:43;17.38;;;15.57;;
58101;SDS011;52034;51.926;6.320;2022-08-19T06:22:03;19.65;;;17.20;;
58101;SDS011;52034;51.926;6.320;2022-08-19T06:23:22;21.75;;;18.35;;
58101;SDS011;52034;51.926;6.320;2022-08-19T06:24:41;24.88;;;21.48;;
58101;SDS011;52034;51.926;6.320;2022-08-19T06:26:00;24.30;;;21.13;;
58101;SDS011;52034;51.926;6.320;2022-08-19T06:27:20;28.17;;;21.40;;
58101;SDS011;52034;51.926;6.320;2022-08-19T06:28:39;24.50;;;20.90;;
58101;SDS011;52034;51.926;6.320;2022-08-19T06:30:03;27.02;;;21.63;;
58101;SDS011;52034;51.926;6.320;2022-08-19T06:31:24;23.63;;;20.88;;
58101;SDS011;52034;51.926;6.320;2022-08-19T06:32:44;25.90;;;21.45;;
58101;SDS011;52034;51.926;6.320;2022-08-19T06:34:04;26.02;;;21.60;;
58101;SDS011;52034;51.926;6.320;2022-08-19T06:35:23;24.80;;;21.98;;
58101;SDS011;52034;51.926;6.320;2022-08-19T06:36:51;19.85;;;16.80;;
58101;SDS011;52034;51.926;6.320;2022-08-19T06:38:11;19.35;;;17.27;;
58101;SDS011;52034;51.926;6.320;2022-08-19T06:39:32;21.48;;;18.80;;
58101;SDS011;52034;51.926;6.320;2022-08-19T06:41:00;27.92;;;21.90;;
58101;SDS011;52034;51.926;6.320;2022-08-19T06:42:20;21.58;;;18.63;;
58101;SDS011;52034;51.926;6.320;2022-08-19T06:43:39;25.27;;;20.38;;
58101;SDS011;52034;51.926;6.320;2022-08-19T06:45:00;26.73;;;22.80;;
58101;SDS011;52034;51.926;6.320;2022-08-19T06:46:22;27.63;;;22.90;;
58101;SDS011;52034;51.926;6.320;2022-08-19T06:47:42;22.42;;;18.67;;
58101;SDS011;52034;51.926;6.320;2022-08-19T06:50:24;24.58;;;20.58;;
58101;SDS011;52034;51.926;6.320;2022-08-19T06:51:44;25.17;;;20.42;;
58101;SDS011;52034;51.926;6.320;2022-08-19T06:53:06;24.85;;;20.50;;
58101;SDS011;52034;51.926;6.320;2022-08-19T06:54:25;22.17;;;18.35;;
58101;SDS011;52034;51.926;6.320;2022-08-19T06:55:45;25.83;;;21.40;;
58101;SDS011;52034;51.926;6.320;2022-08-19T06:57:05;27.20;;;23.55;;
58101;SDS011;52034;51.926;6.320;2022-08-19T06:58:25;26.13;;;20.60;;
58101;SDS011;52034;51.926;6.320;2022-08-19T06:59:44;23.83;;;19.67;;
58101;SDS011;52034;51.926;6.320;2022-08-19T07:01:04;22.92;;;19.92;;
58101;SDS011;52034;51.926;6.320;2022-08-19T07:02:23;23.95;;;19.08;;
58101;SDS011;52034;51.926;6.320;2022-08-19T07:03:45;29.08;;;21.13;;
58101;SDS011;52034;51.926;6.320;2022-08-19T07:05:05;28.88;;;21.40;;
58101;SDS011;52034;51.926;6.320;2022-08-19T07:06:24;27.58;;;21.83;;
58101;SDS011;52034;51.926;6.320;2022-08-19T07:07:43;25.48;;;20.55;;
58101;SDS011;52034;51.926;6.320;2022-08-19T07:09:03;26.45;;;18.63;;
58101;SDS011;52034;51.926;6.320;2022-08-19T07:10:24;23.45;;;18.27;;
58101;SDS011;52034;51.926;6.320;2022-08-19T07:11:46;28.83;;;21.65;;
58101;SDS011;52034;51.926;6.320;2022-08-19T07:13:09;27.35;;;20.20;;
58101;SDS011;52034;51.926;6.320;2022-08-19T07:14:29;28.42;;;22.23;;
58101;SDS011;52034;51.926;6.320;2022-08-19T07:15:48;27.52;;;20.80;;
58101;SDS011;52034;51.926;6.320;2022-08-19T07:17:10;33.85;;;24.42;;
58101;SDS011;52034;51.926;6.320;2022-08-19T07:18:30;34.88;;;25.05;;
58101;SDS011;52034;51.926;6.320;2022-08-19T07:19:48;35.78;;;27.77;;
58101;SDS011;52034;51.926;6.320;2022-08-19T07:21:10;34.42;;;27.77;;
58101;SDS011;52034;51.926;6.320;2022-08-19T07:22:47;36.85;;;28.05;;
58101;SDS011;52034;51.926;6.320;2022-08-19T07:24:07;38.15;;;28.00;;
58101;SDS011;52034;51.926;6.320;2022-08-19T07:25:26;35.25;;;25.75;;
58101;SDS011;52034;51.926;6.320;2022-08-19T07:26:46;30.27;;;24.08;;
58101;SDS011;52034;51.926;6.320;2022-08-19T07:28:06;33.20;;;24.63;;
58101;SDS011;52034;51.926;6.320;2022-08-19T07:29:29;32.45;;;23.83;;
58101;SDS011;52034;51.926;6.320;2022-08-19T07:30:49;34.10;;;26.33;;
58101;SDS011;52034;51.926;6.320;2022-08-19T07:32:08;35.08;;;25.23;;
58101;SDS011;52034;51.926;6.320;2022-08-19T07:33:29;36.13;;;26.17;;
58101;SDS011;52034;51.926;6.320;2022-08-19T07:34:51;35.80;;;25.83;;
58101;SDS011;52034;51.926;6.320;2022-08-19T07:36:12;35.58;;;26.90;;
58101;SDS011;52034;51.926;6.320;2022-08-19T07:37:32;35.88;;;25.33;;
58101;SDS011;52034;51.926;6.320;2022-08-19T07:38:52;37.65;;;26.38;;
58101;SDS011;52034;51.926;6.320;2022-08-19T07:40:13;34.90;;;24.95;;
58101;SDS011;52034;51.926;6.320;2022-08-19T07:41:32;33.88;;;25.90;;
58101;SDS011;52034;51.926;6.320;2022-08-19T07:42:51;37.40;;;27.48;;
58101;SDS011;52034;51.926;6.320;2022-08-19T07:44:10;37.83;;;25.40;;
58101;SDS011;52034;51.926;6.320;2022-08-19T07:45:30;38.75;;;26.02;;
58101;SDS011;52034;51.926;6.320;2022-08-19T07:46:52;38.60;;;26.52;;
58101;SDS011;52034;51.926;6.320;2022-08-19T07:48:14;38.67;;;27.10;;
58101;SDS011;52034;51.926;6.320;2022-08-19T07:49:33;35.38;;;26.23;;
58101;SDS011;52034;51.926;6.320;2022-08-19T07:50:53;40.67;;;26.65;;
58101;SDS011;52034;51.926;6.320;2022-08-19T07:52:13;37.38;;;26.38;;
58101;SDS011;52034;51.926;6.320;2022-08-19T07:53:32;40.35;;;28.38;;
58101;SDS011;52034;51.926;6.320;2022-08-19T07:54:54;34.70;;;24.73;;
58101;SDS011;52034;51.926;6.320;2022-08-19T07:56:13;34.03;;;24.65;;
58101;SDS011;52034;51.926;6.320;2022-08-19T07:57:32;33.33;;;23.55;;
58101;SDS011;52034;51.926;6.320;2022-08-19T07:58:51;32.88;;;23.58;;